<?xml version="1.0" encoding="UTF-8" standalone="no" ?>
<gpx xmlns="http://www.topografix.com/GPX/1/1" xmlns:xsi="http://www.w3.org/2001/XMLSchema-instance" xsi:schemaLocation="http://www.topografix.com/GPX/1/1 http://www.topografix.com/GPX/1/1/gpx.xsd" version="1.1" creator="VisuGPX - https://www.visugpx.com">
  <metadata>
    <name>Rochers de la Bade Mont Collombier d'Aillon</name>
    <desc><![CDATA[Boucle au départ de Crévibert, à côté d'Aillon le Jeune
Montée par les Rochers de la Bade, quelques passages où il faut mettre les mains.
Cela demande un peu d'attention mais rien de bien méchant.
Pour rajouter un peu de dénivelé, montée au Collombier d'Aillon]]></desc>
  </metadata>
  <trk>
    <name><![CDATA[Tracé actuel: 14 JUIL 2018 08:20]]></name>
    <trkseg>
      <trkpt lat="45.61643" lon="6.08719">
        <ele>832.64</ele>
        <time>2018-07-14T06:26:38Z</time>
      </trkpt>
      <trkpt lat="45.61626" lon="6.08742">
        <ele>836.96</ele>
        <time>2018-07-14T06:27:37Z</time>
      </trkpt>
      <trkpt lat="45.61614" lon="6.08755">
        <ele>862.44</ele>
        <time>2018-07-14T06:35:35Z</time>
      </trkpt>
      <trkpt lat="45.61623" lon="6.08788">
        <ele>872.53</ele>
        <time>2018-07-14T06:36:28Z</time>
      </trkpt>
      <trkpt lat="45.61634" lon="6.0881">
        <ele>885.03</ele>
        <time>2018-07-14T06:37:34Z</time>
      </trkpt>
      <trkpt lat="45.61637" lon="6.08836">
        <ele>894.16</ele>
        <time>2018-07-14T06:38:27Z</time>
      </trkpt>
      <trkpt lat="45.61618" lon="6.08856">
        <ele>901.37</ele>
        <time>2018-07-14T06:39:07Z</time>
      </trkpt>
      <trkpt lat="45.61592" lon="6.08866">
        <ele>906.18</ele>
        <time>2018-07-14T06:39:38Z</time>
      </trkpt>
      <trkpt lat="45.61585" lon="6.08883">
        <ele>913.39</ele>
        <time>2018-07-14T06:40:22Z</time>
      </trkpt>
      <trkpt lat="45.61609" lon="6.08889">
        <ele>920.6</ele>
        <time>2018-07-14T06:41:08Z</time>
      </trkpt>
      <trkpt lat="45.61623" lon="6.08915">
        <ele>930.21</ele>
        <time>2018-07-14T06:42:00Z</time>
      </trkpt>
      <trkpt lat="45.61645" lon="6.08922">
        <ele>934.06</ele>
        <time>2018-07-14T06:42:37Z</time>
      </trkpt>
      <trkpt lat="45.6167" lon="6.08922">
        <ele>937.9</ele>
        <time>2018-07-14T06:43:07Z</time>
      </trkpt>
      <trkpt lat="45.6169" lon="6.0893">
        <ele>947.52</ele>
        <time>2018-07-14T06:44:01Z</time>
      </trkpt>
      <trkpt lat="45.61704" lon="6.08909">
        <ele>947.52</ele>
        <time>2018-07-14T06:44:26Z</time>
      </trkpt>
      <trkpt lat="45.6171" lon="6.08878">
        <ele>949.92</ele>
        <time>2018-07-14T06:44:58Z</time>
      </trkpt>
      <trkpt lat="45.61735" lon="6.08881">
        <ele>958.57</ele>
        <time>2018-07-14T06:46:00Z</time>
      </trkpt>
      <trkpt lat="45.61737" lon="6.08917">
        <ele>968.67</ele>
        <time>2018-07-14T06:46:56Z</time>
      </trkpt>
      <trkpt lat="45.61765" lon="6.08916">
        <ele>979.24</ele>
        <time>2018-07-14T06:48:00Z</time>
      </trkpt>
      <trkpt lat="45.61776" lon="6.08941">
        <ele>990.78</ele>
        <time>2018-07-14T06:49:02Z</time>
      </trkpt>
      <trkpt lat="45.61782" lon="6.08961">
        <ele>997.51</ele>
        <time>2018-07-14T06:49:50Z</time>
      </trkpt>
      <trkpt lat="45.618" lon="6.08978">
        <ele>1006.16</ele>
        <time>2018-07-14T06:50:46Z</time>
      </trkpt>
      <trkpt lat="45.61809" lon="6.09015">
        <ele>1010.96</ele>
        <time>2018-07-14T06:51:24Z</time>
      </trkpt>
      <trkpt lat="45.61812" lon="6.09054">
        <ele>1016.25</ele>
        <time>2018-07-14T06:52:03Z</time>
      </trkpt>
      <trkpt lat="45.61807" lon="6.0908">
        <ele>1025.38</ele>
        <time>2018-07-14T06:52:53Z</time>
      </trkpt>
      <trkpt lat="45.61794" lon="6.09114">
        <ele>1033.55</ele>
        <time>2018-07-14T06:53:46Z</time>
      </trkpt>
      <trkpt lat="45.61777" lon="6.09145">
        <ele>1041.73</ele>
        <time>2018-07-14T06:54:34Z</time>
      </trkpt>
      <trkpt lat="45.61758" lon="6.09173">
        <ele>1049.9</ele>
        <time>2018-07-14T06:55:27Z</time>
      </trkpt>
      <trkpt lat="45.61737" lon="6.09199">
        <ele>1058.07</ele>
        <time>2018-07-14T06:56:24Z</time>
      </trkpt>
      <trkpt lat="45.61716" lon="6.09213">
        <ele>1065.28</ele>
        <time>2018-07-14T06:57:05Z</time>
      </trkpt>
      <trkpt lat="45.61695" lon="6.09222">
        <ele>1063.84</ele>
        <time>2018-07-14T06:57:58Z</time>
      </trkpt>
      <trkpt lat="45.61668" lon="6.09234">
        <ele>1066.72</ele>
        <time>2018-07-14T06:58:31Z</time>
      </trkpt>
      <trkpt lat="45.61647" lon="6.09258">
        <ele>1075.37</ele>
        <time>2018-07-14T06:59:27Z</time>
      </trkpt>
      <trkpt lat="45.61638" lon="6.09292">
        <ele>1087.39</ele>
        <time>2018-07-14T07:00:41Z</time>
      </trkpt>
      <trkpt lat="45.61612" lon="6.09314">
        <ele>1097.48</ele>
        <time>2018-07-14T07:01:48Z</time>
      </trkpt>
      <trkpt lat="45.61586" lon="6.09329">
        <ele>1106.13</ele>
        <time>2018-07-14T07:02:41Z</time>
      </trkpt>
      <trkpt lat="45.61571" lon="6.09353">
        <ele>1115.27</ele>
        <time>2018-07-14T07:03:38Z</time>
      </trkpt>
      <trkpt lat="45.61552" lon="6.09373">
        <ele>1123.92</ele>
        <time>2018-07-14T07:04:37Z</time>
      </trkpt>
      <trkpt lat="45.61531" lon="6.09392">
        <ele>1128.73</ele>
        <time>2018-07-14T07:05:18Z</time>
      </trkpt>
      <trkpt lat="45.61538" lon="6.09419">
        <ele>1136.42</ele>
        <time>2018-07-14T07:06:12Z</time>
      </trkpt>
      <trkpt lat="45.61562" lon="6.09423">
        <ele>1148.43</ele>
        <time>2018-07-14T07:07:26Z</time>
      </trkpt>
      <trkpt lat="45.61591" lon="6.09418">
        <ele>1158.53</ele>
        <time>2018-07-14T07:08:32Z</time>
      </trkpt>
      <trkpt lat="45.61613" lon="6.09399">
        <ele>1165.74</ele>
        <time>2018-07-14T07:09:29Z</time>
      </trkpt>
      <trkpt lat="45.61629" lon="6.09399">
        <ele>1176.31</ele>
        <time>2018-07-14T07:10:38Z</time>
      </trkpt>
      <trkpt lat="45.61619" lon="6.09429">
        <ele>1184.96</ele>
        <time>2018-07-14T07:11:34Z</time>
      </trkpt>
      <trkpt lat="45.61618" lon="6.09463">
        <ele>1195.06</ele>
        <time>2018-07-14T07:12:36Z</time>
      </trkpt>
      <trkpt lat="45.61642" lon="6.09485">
        <ele>1205.63</ele>
        <time>2018-07-14T07:13:53Z</time>
      </trkpt>
      <trkpt lat="45.6166" lon="6.09499">
        <ele>1215.72</ele>
        <time>2018-07-14T07:14:48Z</time>
      </trkpt>
      <trkpt lat="45.61684" lon="6.0951">
        <ele>1223.42</ele>
        <time>2018-07-14T07:15:33Z</time>
      </trkpt>
      <trkpt lat="45.61713" lon="6.0951">
        <ele>1229.18</ele>
        <time>2018-07-14T07:16:21Z</time>
      </trkpt>
      <trkpt lat="45.61725" lon="6.09537">
        <ele>1233.51</ele>
        <time>2018-07-14T07:16:52Z</time>
      </trkpt>
      <trkpt lat="45.61741" lon="6.09523">
        <ele>1244.56</ele>
        <time>2018-07-14T07:18:06Z</time>
      </trkpt>
      <trkpt lat="45.61764" lon="6.09529">
        <ele>1255.14</ele>
        <time>2018-07-14T07:19:07Z</time>
      </trkpt>
      <trkpt lat="45.61791" lon="6.09521">
        <ele>1268.6</ele>
        <time>2018-07-14T07:20:31Z</time>
      </trkpt>
      <trkpt lat="45.61817" lon="6.09523">
        <ele>1274.85</ele>
        <time>2018-07-14T07:21:14Z</time>
      </trkpt>
      <trkpt lat="45.61841" lon="6.09542">
        <ele>1284.46</ele>
        <time>2018-07-14T07:22:13Z</time>
      </trkpt>
      <trkpt lat="45.61842" lon="6.09559">
        <ele>1287.34</ele>
        <time>2018-07-14T07:24:56Z</time>
      </trkpt>
      <trkpt lat="45.6184" lon="6.09563">
        <ele>1291.19</ele>
        <time>2018-07-14T07:28:06Z</time>
      </trkpt>
      <trkpt lat="45.61859" lon="6.09587">
        <ele>1300.8</ele>
        <time>2018-07-14T07:29:05Z</time>
      </trkpt>
      <trkpt lat="45.61872" lon="6.09615">
        <ele>1310.9</ele>
        <time>2018-07-14T07:30:10Z</time>
      </trkpt>
      <trkpt lat="45.61893" lon="6.09622">
        <ele>1323.39</ele>
        <time>2018-07-14T07:31:29Z</time>
      </trkpt>
      <trkpt lat="45.61913" lon="6.0964">
        <ele>1330.12</ele>
        <time>2018-07-14T07:32:16Z</time>
      </trkpt>
      <trkpt lat="45.61931" lon="6.09657">
        <ele>1341.18</ele>
        <time>2018-07-14T07:33:38Z</time>
      </trkpt>
      <trkpt lat="45.61949" lon="6.09675">
        <ele>1357.04</ele>
        <time>2018-07-14T07:35:48Z</time>
      </trkpt>
      <trkpt lat="45.61958" lon="6.09696">
        <ele>1370.98</ele>
        <time>2018-07-14T07:37:25Z</time>
      </trkpt>
      <trkpt lat="45.61973" lon="6.0972">
        <ele>1381.07</ele>
        <time>2018-07-14T07:38:45Z</time>
      </trkpt>
      <trkpt lat="45.61983" lon="6.09745">
        <ele>1396.45</ele>
        <time>2018-07-14T07:40:30Z</time>
      </trkpt>
      <trkpt lat="45.61988" lon="6.09769">
        <ele>1408.95</ele>
        <time>2018-07-14T07:42:16Z</time>
      </trkpt>
      <trkpt lat="45.62009" lon="6.09783">
        <ele>1416.16</ele>
        <time>2018-07-14T07:43:19Z</time>
      </trkpt>
      <trkpt lat="45.62008" lon="6.09797">
        <ele>1427.7</ele>
        <time>2018-07-14T07:45:01Z</time>
      </trkpt>
      <trkpt lat="45.62027" lon="6.09808">
        <ele>1438.75</ele>
        <time>2018-07-14T07:46:43Z</time>
      </trkpt>
      <trkpt lat="45.62015" lon="6.09823">
        <ele>1453.17</ele>
        <time>2018-07-14T07:48:55Z</time>
      </trkpt>
      <trkpt lat="45.62018" lon="6.09852">
        <ele>1464.71</ele>
        <time>2018-07-14T07:50:18Z</time>
      </trkpt>
      <trkpt lat="45.62036" lon="6.0988">
        <ele>1476.24</ele>
        <time>2018-07-14T07:51:57Z</time>
      </trkpt>
      <trkpt lat="45.62048" lon="6.09907">
        <ele>1484.89</ele>
        <time>2018-07-14T07:53:04Z</time>
      </trkpt>
      <trkpt lat="45.62063" lon="6.09924">
        <ele>1494.03</ele>
        <time>2018-07-14T07:54:16Z</time>
      </trkpt>
      <trkpt lat="45.62081" lon="6.09946">
        <ele>1500.76</ele>
        <time>2018-07-14T07:55:12Z</time>
      </trkpt>
      <trkpt lat="45.621" lon="6.09968">
        <ele>1512.77</ele>
        <time>2018-07-14T07:56:41Z</time>
      </trkpt>
      <trkpt lat="45.62118" lon="6.0999">
        <ele>1520.94</ele>
        <time>2018-07-14T07:57:54Z</time>
      </trkpt>
      <trkpt lat="45.62141" lon="6.09999">
        <ele>1526.71</ele>
        <time>2018-07-14T07:58:58Z</time>
      </trkpt>
      <trkpt lat="45.62154" lon="6.10024">
        <ele>1533.92</ele>
        <time>2018-07-14T07:59:55Z</time>
      </trkpt>
      <trkpt lat="45.6217" lon="6.10045">
        <ele>1542.09</ele>
        <time>2018-07-14T08:01:02Z</time>
      </trkpt>
      <trkpt lat="45.62192" lon="6.10064">
        <ele>1544.98</ele>
        <time>2018-07-14T08:02:05Z</time>
      </trkpt>
      <trkpt lat="45.62215" lon="6.10086">
        <ele>1550.26</ele>
        <time>2018-07-14T08:03:05Z</time>
      </trkpt>
      <trkpt lat="45.6223" lon="6.10107">
        <ele>1559.4</ele>
        <time>2018-07-14T08:04:16Z</time>
      </trkpt>
      <trkpt lat="45.62248" lon="6.10126">
        <ele>1570.93</ele>
        <time>2018-07-14T08:05:44Z</time>
      </trkpt>
      <trkpt lat="45.62263" lon="6.10148">
        <ele>1582.95</ele>
        <time>2018-07-14T08:07:15Z</time>
      </trkpt>
      <trkpt lat="45.62281" lon="6.10157">
        <ele>1589.2</ele>
        <time>2018-07-14T08:08:45Z</time>
      </trkpt>
      <trkpt lat="45.62298" lon="6.10175">
        <ele>1601.21</ele>
        <time>2018-07-14T08:10:06Z</time>
      </trkpt>
      <trkpt lat="45.62303" lon="6.10191">
        <ele>1614.19</ele>
        <time>2018-07-14T08:12:06Z</time>
      </trkpt>
      <trkpt lat="45.62317" lon="6.10202">
        <ele>1620.92</ele>
        <time>2018-07-14T08:15:14Z</time>
      </trkpt>
      <trkpt lat="45.62338" lon="6.10222">
        <ele>1629.57</ele>
        <time>2018-07-14T08:16:19Z</time>
      </trkpt>
      <trkpt lat="45.62356" lon="6.10237">
        <ele>1635.82</ele>
        <time>2018-07-14T08:17:14Z</time>
      </trkpt>
      <trkpt lat="45.62377" lon="6.10236">
        <ele>1643.51</ele>
        <time>2018-07-14T08:18:18Z</time>
      </trkpt>
      <trkpt lat="45.62393" lon="6.10257">
        <ele>1654.09</ele>
        <time>2018-07-14T08:19:34Z</time>
      </trkpt>
      <trkpt lat="45.62411" lon="6.10271">
        <ele>1666.1</ele>
        <time>2018-07-14T08:21:10Z</time>
      </trkpt>
      <trkpt lat="45.62432" lon="6.10284">
        <ele>1671.87</ele>
        <time>2018-07-14T08:22:09Z</time>
      </trkpt>
      <trkpt lat="45.62453" lon="6.10303">
        <ele>1684.37</ele>
        <time>2018-07-14T08:23:33Z</time>
      </trkpt>
      <trkpt lat="45.62473" lon="6.1033">
        <ele>1687.73</ele>
        <time>2018-07-14T08:24:11Z</time>
      </trkpt>
      <trkpt lat="45.62492" lon="6.10351">
        <ele>1689.17</ele>
        <time>2018-07-14T08:24:52Z</time>
      </trkpt>
      <trkpt lat="45.62502" lon="6.10379">
        <ele>1691.58</ele>
        <time>2018-07-14T08:25:22Z</time>
      </trkpt>
      <trkpt lat="45.62518" lon="6.10411">
        <ele>1692.54</ele>
        <time>2018-07-14T08:25:59Z</time>
      </trkpt>
      <trkpt lat="45.62536" lon="6.1043">
        <ele>1692.54</ele>
        <time>2018-07-14T08:26:26Z</time>
      </trkpt>
      <trkpt lat="45.62556" lon="6.1045">
        <ele>1696.86</ele>
        <time>2018-07-14T08:27:06Z</time>
      </trkpt>
      <trkpt lat="45.62575" lon="6.10478">
        <ele>1701.67</ele>
        <time>2018-07-14T08:27:47Z</time>
      </trkpt>
      <trkpt lat="45.62594" lon="6.10492">
        <ele>1706</ele>
        <time>2018-07-14T08:29:24Z</time>
      </trkpt>
      <trkpt lat="45.62611" lon="6.10512">
        <ele>1712.73</ele>
        <time>2018-07-14T08:30:15Z</time>
      </trkpt>
      <trkpt lat="45.6264" lon="6.10519">
        <ele>1717.05</ele>
        <time>2018-07-14T08:31:24Z</time>
      </trkpt>
      <trkpt lat="45.62659" lon="6.10543">
        <ele>1724.74</ele>
        <time>2018-07-14T08:32:25Z</time>
      </trkpt>
      <trkpt lat="45.6267" lon="6.10567">
        <ele>1734.36</ele>
        <time>2018-07-14T08:33:24Z</time>
      </trkpt>
      <trkpt lat="45.6269" lon="6.10589">
        <ele>1747.33</ele>
        <time>2018-07-14T08:34:42Z</time>
      </trkpt>
      <trkpt lat="45.62704" lon="6.10609">
        <ele>1754.06</ele>
        <time>2018-07-14T08:35:39Z</time>
      </trkpt>
      <trkpt lat="45.62715" lon="6.10622">
        <ele>1761.27</ele>
        <time>2018-07-14T08:38:14Z</time>
      </trkpt>
      <trkpt lat="45.62728" lon="6.10652">
        <ele>1774.73</ele>
        <time>2018-07-14T08:39:45Z</time>
      </trkpt>
      <trkpt lat="45.62745" lon="6.10673">
        <ele>1791.07</ele>
        <time>2018-07-14T08:42:08Z</time>
      </trkpt>
      <trkpt lat="45.62768" lon="6.10684">
        <ele>1790.59</ele>
        <time>2018-07-14T08:42:55Z</time>
      </trkpt>
      <trkpt lat="45.6279" lon="6.10696">
        <ele>1796.84</ele>
        <time>2018-07-14T08:43:44Z</time>
      </trkpt>
      <trkpt lat="45.62802" lon="6.10724">
        <ele>1810.78</ele>
        <time>2018-07-14T08:45:27Z</time>
      </trkpt>
      <trkpt lat="45.62823" lon="6.10742">
        <ele>1813.18</ele>
        <time>2018-07-14T08:46:01Z</time>
      </trkpt>
      <trkpt lat="45.62845" lon="6.10758">
        <ele>1824.24</ele>
        <time>2018-07-14T08:47:57Z</time>
      </trkpt>
      <trkpt lat="45.62854" lon="6.10766">
        <ele>1826.16</ele>
        <time>2018-07-14T08:49:37Z</time>
      </trkpt>
      <trkpt lat="45.62873" lon="6.10781">
        <ele>1828.08</ele>
        <time>2018-07-14T08:50:46Z</time>
      </trkpt>
      <trkpt lat="45.62889" lon="6.10804">
        <ele>1835.29</ele>
        <time>2018-07-14T08:51:49Z</time>
      </trkpt>
      <trkpt lat="45.62916" lon="6.10816">
        <ele>1835.77</ele>
        <time>2018-07-14T08:52:37Z</time>
      </trkpt>
      <trkpt lat="45.62939" lon="6.10817">
        <ele>1835.29</ele>
        <time>2018-07-14T08:53:23Z</time>
      </trkpt>
      <trkpt lat="45.62953" lon="6.10815">
        <ele>1837.22</ele>
        <time>2018-07-14T08:54:55Z</time>
      </trkpt>
      <trkpt lat="45.62961" lon="6.10809">
        <ele>1838.66</ele>
        <time>2018-07-14T08:58:29Z</time>
      </trkpt>
      <trkpt lat="45.62963" lon="6.10807">
        <ele>1841.06</ele>
        <time>2018-07-14T09:07:00Z</time>
      </trkpt>
      <trkpt lat="45.62978" lon="6.10806">
        <ele>1839.14</ele>
        <time>2018-07-14T09:11:29Z</time>
      </trkpt>
      <trkpt lat="45.63001" lon="6.10813">
        <ele>1827.6</ele>
        <time>2018-07-14T09:12:39Z</time>
      </trkpt>
      <trkpt lat="45.63016" lon="6.10834">
        <ele>1817.99</ele>
        <time>2018-07-14T09:13:37Z</time>
      </trkpt>
      <trkpt lat="45.63036" lon="6.10861">
        <ele>1814.63</ele>
        <time>2018-07-14T09:14:14Z</time>
      </trkpt>
      <trkpt lat="45.63047" lon="6.10889">
        <ele>1813.66</ele>
        <time>2018-07-14T09:14:43Z</time>
      </trkpt>
      <trkpt lat="45.63066" lon="6.10906">
        <ele>1813.66</ele>
        <time>2018-07-14T09:15:19Z</time>
      </trkpt>
      <trkpt lat="45.63085" lon="6.10924">
        <ele>1821.84</ele>
        <time>2018-07-14T09:16:18Z</time>
      </trkpt>
      <trkpt lat="45.63113" lon="6.10938">
        <ele>1826.64</ele>
        <time>2018-07-14T09:17:12Z</time>
      </trkpt>
      <trkpt lat="45.63134" lon="6.10953">
        <ele>1833.37</ele>
        <time>2018-07-14T09:18:05Z</time>
      </trkpt>
      <trkpt lat="45.6316" lon="6.10961">
        <ele>1836.74</ele>
        <time>2018-07-14T09:18:48Z</time>
      </trkpt>
      <trkpt lat="45.63186" lon="6.10965">
        <ele>1828.56</ele>
        <time>2018-07-14T09:19:46Z</time>
      </trkpt>
      <trkpt lat="45.63211" lon="6.10962">
        <ele>1819.43</ele>
        <time>2018-07-14T09:20:54Z</time>
      </trkpt>
      <trkpt lat="45.63228" lon="6.10984">
        <ele>1817.03</ele>
        <time>2018-07-14T09:23:10Z</time>
      </trkpt>
      <trkpt lat="45.63241" lon="6.11015">
        <ele>1816.55</ele>
        <time>2018-07-14T09:24:37Z</time>
      </trkpt>
      <trkpt lat="45.6324" lon="6.11051">
        <ele>1814.63</ele>
        <time>2018-07-14T09:25:42Z</time>
      </trkpt>
      <trkpt lat="45.63253" lon="6.11065">
        <ele>1812.7</ele>
        <time>2018-07-14T09:27:37Z</time>
      </trkpt>
      <trkpt lat="45.63277" lon="6.11072">
        <ele>1807.9</ele>
        <time>2018-07-14T09:29:17Z</time>
      </trkpt>
      <trkpt lat="45.63298" lon="6.11076">
        <ele>1803.09</ele>
        <time>2018-07-14T09:31:21Z</time>
      </trkpt>
      <trkpt lat="45.63319" lon="6.11087">
        <ele>1791.55</ele>
        <time>2018-07-14T09:33:16Z</time>
      </trkpt>
      <trkpt lat="45.63334" lon="6.11107">
        <ele>1780.02</ele>
        <time>2018-07-14T09:34:59Z</time>
      </trkpt>
      <trkpt lat="45.63352" lon="6.11109">
        <ele>1767.04</ele>
        <time>2018-07-14T09:36:52Z</time>
      </trkpt>
      <trkpt lat="45.6337" lon="6.11138">
        <ele>1755.99</ele>
        <time>2018-07-14T09:38:36Z</time>
      </trkpt>
      <trkpt lat="45.63392" lon="6.11155">
        <ele>1748.29</ele>
        <time>2018-07-14T09:39:43Z</time>
      </trkpt>
      <trkpt lat="45.63406" lon="6.11179">
        <ele>1750.22</ele>
        <time>2018-07-14T09:40:43Z</time>
      </trkpt>
      <trkpt lat="45.63425" lon="6.11199">
        <ele>1753.58</ele>
        <time>2018-07-14T09:41:58Z</time>
      </trkpt>
      <trkpt lat="45.63449" lon="6.11223">
        <ele>1748.29</ele>
        <time>2018-07-14T09:42:55Z</time>
      </trkpt>
      <trkpt lat="45.63469" lon="6.11243">
        <ele>1746.37</ele>
        <time>2018-07-14T09:43:29Z</time>
      </trkpt>
      <trkpt lat="45.63491" lon="6.11254">
        <ele>1743.49</ele>
        <time>2018-07-14T09:44:37Z</time>
      </trkpt>
      <trkpt lat="45.63516" lon="6.11266">
        <ele>1735.8</ele>
        <time>2018-07-14T09:45:28Z</time>
      </trkpt>
      <trkpt lat="45.63537" lon="6.11277">
        <ele>1734.84</ele>
        <time>2018-07-14T09:46:17Z</time>
      </trkpt>
      <trkpt lat="45.63559" lon="6.11293">
        <ele>1736.28</ele>
        <time>2018-07-14T09:47:15Z</time>
      </trkpt>
      <trkpt lat="45.63575" lon="6.11279">
        <ele>1741.08</ele>
        <time>2018-07-14T09:48:40Z</time>
      </trkpt>
      <trkpt lat="45.63598" lon="6.11287">
        <ele>1732.43</ele>
        <time>2018-07-14T09:49:48Z</time>
      </trkpt>
      <trkpt lat="45.63625" lon="6.113">
        <ele>1721.38</ele>
        <time>2018-07-14T09:51:33Z</time>
      </trkpt>
      <trkpt lat="45.63655" lon="6.11309">
        <ele>1719.46</ele>
        <time>2018-07-14T09:52:23Z</time>
      </trkpt>
      <trkpt lat="45.63677" lon="6.11327">
        <ele>1712.25</ele>
        <time>2018-07-14T09:54:35Z</time>
      </trkpt>
      <trkpt lat="45.63698" lon="6.11342">
        <ele>1715.61</ele>
        <time>2018-07-14T09:55:22Z</time>
      </trkpt>
      <trkpt lat="45.63721" lon="6.11346">
        <ele>1710.8</ele>
        <time>2018-07-14T09:56:17Z</time>
      </trkpt>
      <trkpt lat="45.63744" lon="6.11355">
        <ele>1718.97</ele>
        <time>2018-07-14T09:56:59Z</time>
      </trkpt>
      <trkpt lat="45.63763" lon="6.11372">
        <ele>1721.38</ele>
        <time>2018-07-14T09:57:42Z</time>
      </trkpt>
      <trkpt lat="45.63787" lon="6.1138">
        <ele>1717.05</ele>
        <time>2018-07-14T09:58:21Z</time>
      </trkpt>
      <trkpt lat="45.6381" lon="6.1139">
        <ele>1714.17</ele>
        <time>2018-07-14T09:58:56Z</time>
      </trkpt>
      <trkpt lat="45.63832" lon="6.11413">
        <ele>1709.84</ele>
        <time>2018-07-14T09:59:28Z</time>
      </trkpt>
      <trkpt lat="45.63851" lon="6.11431">
        <ele>1709.36</ele>
        <time>2018-07-14T09:59:57Z</time>
      </trkpt>
      <trkpt lat="45.63865" lon="6.11433">
        <ele>1708.88</ele>
        <time>2018-07-14T10:01:44Z</time>
      </trkpt>
      <trkpt lat="45.63883" lon="6.11448">
        <ele>1716.09</ele>
        <time>2018-07-14T10:03:21Z</time>
      </trkpt>
      <trkpt lat="45.63907" lon="6.1146">
        <ele>1725.22</ele>
        <time>2018-07-14T10:04:10Z</time>
      </trkpt>
      <trkpt lat="45.63928" lon="6.11474">
        <ele>1735.32</ele>
        <time>2018-07-14T10:05:03Z</time>
      </trkpt>
      <trkpt lat="45.63955" lon="6.1148">
        <ele>1748.29</ele>
        <time>2018-07-14T10:06:02Z</time>
      </trkpt>
      <trkpt lat="45.63974" lon="6.11499">
        <ele>1760.79</ele>
        <time>2018-07-14T10:07:01Z</time>
      </trkpt>
      <trkpt lat="45.63999" lon="6.11506">
        <ele>1776.65</ele>
        <time>2018-07-14T10:08:11Z</time>
      </trkpt>
      <trkpt lat="45.64016" lon="6.11518">
        <ele>1790.11</ele>
        <time>2018-07-14T10:09:18Z</time>
      </trkpt>
      <trkpt lat="45.64032" lon="6.11531">
        <ele>1804.53</ele>
        <time>2018-07-14T10:10:31Z</time>
      </trkpt>
      <trkpt lat="45.64035" lon="6.11557">
        <ele>1816.55</ele>
        <time>2018-07-14T10:11:29Z</time>
      </trkpt>
      <trkpt lat="45.64053" lon="6.11567">
        <ele>1828.08</ele>
        <time>2018-07-14T10:12:43Z</time>
      </trkpt>
      <trkpt lat="45.64068" lon="6.11588">
        <ele>1842.98</ele>
        <time>2018-07-14T10:14:03Z</time>
      </trkpt>
      <trkpt lat="45.64087" lon="6.116">
        <ele>1855</ele>
        <time>2018-07-14T10:15:19Z</time>
      </trkpt>
      <trkpt lat="45.64106" lon="6.11618">
        <ele>1866.06</ele>
        <time>2018-07-14T10:16:28Z</time>
      </trkpt>
      <trkpt lat="45.64126" lon="6.11638">
        <ele>1877.59</ele>
        <time>2018-07-14T10:17:31Z</time>
      </trkpt>
      <trkpt lat="45.64147" lon="6.11657">
        <ele>1886.72</ele>
        <time>2018-07-14T10:18:26Z</time>
      </trkpt>
      <trkpt lat="45.64167" lon="6.11673">
        <ele>1895.38</ele>
        <time>2018-07-14T10:19:14Z</time>
      </trkpt>
      <trkpt lat="45.6417" lon="6.117">
        <ele>1908.35</ele>
        <time>2018-07-14T10:20:36Z</time>
      </trkpt>
      <trkpt lat="45.64185" lon="6.11724">
        <ele>1921.81</ele>
        <time>2018-07-14T10:21:46Z</time>
      </trkpt>
      <trkpt lat="45.642" lon="6.11747">
        <ele>1934.31</ele>
        <time>2018-07-14T10:23:04Z</time>
      </trkpt>
      <trkpt lat="45.6422" lon="6.1176">
        <ele>1941.52</ele>
        <time>2018-07-14T10:23:52Z</time>
      </trkpt>
      <trkpt lat="45.6424" lon="6.11777">
        <ele>1953.06</ele>
        <time>2018-07-14T10:25:08Z</time>
      </trkpt>
      <trkpt lat="45.64263" lon="6.11787">
        <ele>1962.19</ele>
        <time>2018-07-14T10:26:04Z</time>
      </trkpt>
      <trkpt lat="45.64283" lon="6.118">
        <ele>1973.72</ele>
        <time>2018-07-14T10:27:14Z</time>
      </trkpt>
      <trkpt lat="45.64303" lon="6.11816">
        <ele>1984.3</ele>
        <time>2018-07-14T10:28:25Z</time>
      </trkpt>
      <trkpt lat="45.64325" lon="6.11824">
        <ele>1990.07</ele>
        <time>2018-07-14T10:29:09Z</time>
      </trkpt>
      <trkpt lat="45.64354" lon="6.11827">
        <ele>1995.83</ele>
        <time>2018-07-14T10:29:52Z</time>
      </trkpt>
      <trkpt lat="45.64374" lon="6.11845">
        <ele>2002.08</ele>
        <time>2018-07-14T10:30:39Z</time>
      </trkpt>
      <trkpt lat="45.64391" lon="6.11864">
        <ele>2009.77</ele>
        <time>2018-07-14T10:31:35Z</time>
      </trkpt>
      <trkpt lat="45.64408" lon="6.11884">
        <ele>2019.39</ele>
        <time>2018-07-14T10:32:34Z</time>
      </trkpt>
      <trkpt lat="45.64428" lon="6.11903">
        <ele>2026.6</ele>
        <time>2018-07-14T10:33:24Z</time>
      </trkpt>
      <trkpt lat="45.64449" lon="6.11925">
        <ele>2033.33</ele>
        <time>2018-07-14T10:34:14Z</time>
      </trkpt>
      <trkpt lat="45.64461" lon="6.11953">
        <ele>2037.65</ele>
        <time>2018-07-14T10:35:17Z</time>
      </trkpt>
      <trkpt lat="45.64461" lon="6.11952">
        <ele>2038.61</ele>
        <time>2018-07-14T10:44:31Z</time>
      </trkpt>
      <trkpt lat="45.64461" lon="6.11953">
        <ele>2039.09</ele>
        <time>2018-07-14T10:55:42Z</time>
      </trkpt>
      <trkpt lat="45.64461" lon="6.11954">
        <ele>2039.57</ele>
        <time>2018-07-14T11:11:24Z</time>
      </trkpt>
      <trkpt lat="45.6445" lon="6.11925">
        <ele>2034.77</ele>
        <time>2018-07-14T11:12:49Z</time>
      </trkpt>
      <trkpt lat="45.64444" lon="6.11894">
        <ele>2025.64</ele>
        <time>2018-07-14T11:13:35Z</time>
      </trkpt>
      <trkpt lat="45.6445" lon="6.11867">
        <ele>2016.02</ele>
        <time>2018-07-14T11:14:27Z</time>
      </trkpt>
      <trkpt lat="45.6446" lon="6.11837">
        <ele>2004.97</ele>
        <time>2018-07-14T11:15:35Z</time>
      </trkpt>
      <trkpt lat="45.64458" lon="6.11813">
        <ele>1994.39</ele>
        <time>2018-07-14T11:16:27Z</time>
      </trkpt>
      <trkpt lat="45.64473" lon="6.11782">
        <ele>1983.34</ele>
        <time>2018-07-14T11:17:18Z</time>
      </trkpt>
      <trkpt lat="45.64478" lon="6.11751">
        <ele>1974.2</ele>
        <time>2018-07-14T11:17:56Z</time>
      </trkpt>
      <trkpt lat="45.64495" lon="6.11724">
        <ele>1967.96</ele>
        <time>2018-07-14T11:18:37Z</time>
      </trkpt>
      <trkpt lat="45.64514" lon="6.11712">
        <ele>1960.75</ele>
        <time>2018-07-14T11:19:38Z</time>
      </trkpt>
      <trkpt lat="45.64535" lon="6.11706">
        <ele>1953.54</ele>
        <time>2018-07-14T11:20:54Z</time>
      </trkpt>
      <trkpt lat="45.64532" lon="6.11682">
        <ele>1942</ele>
        <time>2018-07-14T11:22:14Z</time>
      </trkpt>
      <trkpt lat="45.64514" lon="6.11656">
        <ele>1927.58</ele>
        <time>2018-07-14T11:23:27Z</time>
      </trkpt>
      <trkpt lat="45.64536" lon="6.11643">
        <ele>1922.29</ele>
        <time>2018-07-14T11:24:04Z</time>
      </trkpt>
      <trkpt lat="45.64559" lon="6.11631">
        <ele>1912.2</ele>
        <time>2018-07-14T11:24:51Z</time>
      </trkpt>
      <trkpt lat="45.64548" lon="6.11607">
        <ele>1900.66</ele>
        <time>2018-07-14T11:25:58Z</time>
      </trkpt>
      <trkpt lat="45.64557" lon="6.11588">
        <ele>1890.57</ele>
        <time>2018-07-14T11:26:45Z</time>
      </trkpt>
      <trkpt lat="45.64578" lon="6.11569">
        <ele>1877.59</ele>
        <time>2018-07-14T11:27:47Z</time>
      </trkpt>
      <trkpt lat="45.64603" lon="6.11557">
        <ele>1866.54</ele>
        <time>2018-07-14T11:28:44Z</time>
      </trkpt>
      <trkpt lat="45.64617" lon="6.11537">
        <ele>1855.48</ele>
        <time>2018-07-14T11:29:56Z</time>
      </trkpt>
      <trkpt lat="45.64631" lon="6.11525">
        <ele>1848.75</ele>
        <time>2018-07-14T11:32:47Z</time>
      </trkpt>
      <trkpt lat="45.64649" lon="6.11506">
        <ele>1838.66</ele>
        <time>2018-07-14T11:33:26Z</time>
      </trkpt>
      <trkpt lat="45.64668" lon="6.11485">
        <ele>1829.05</ele>
        <time>2018-07-14T11:34:05Z</time>
      </trkpt>
      <trkpt lat="45.64689" lon="6.11463">
        <ele>1821.84</ele>
        <time>2018-07-14T11:34:40Z</time>
      </trkpt>
      <trkpt lat="45.64702" lon="6.11432">
        <ele>1815.11</ele>
        <time>2018-07-14T11:35:14Z</time>
      </trkpt>
      <trkpt lat="45.64704" lon="6.11399">
        <ele>1808.86</ele>
        <time>2018-07-14T11:35:43Z</time>
      </trkpt>
      <trkpt lat="45.64699" lon="6.11357">
        <ele>1799.24</ele>
        <time>2018-07-14T11:36:25Z</time>
      </trkpt>
      <trkpt lat="45.64687" lon="6.11315">
        <ele>1789.63</ele>
        <time>2018-07-14T11:37:08Z</time>
      </trkpt>
      <trkpt lat="45.64673" lon="6.11293">
        <ele>1783.38</ele>
        <time>2018-07-14T11:37:43Z</time>
      </trkpt>
      <trkpt lat="45.64646" lon="6.11297">
        <ele>1781.46</ele>
        <time>2018-07-14T11:38:09Z</time>
      </trkpt>
      <trkpt lat="45.64622" lon="6.11292">
        <ele>1776.65</ele>
        <time>2018-07-14T11:38:36Z</time>
      </trkpt>
      <trkpt lat="45.64591" lon="6.11292">
        <ele>1773.29</ele>
        <time>2018-07-14T11:39:06Z</time>
      </trkpt>
      <trkpt lat="45.64566" lon="6.11292">
        <ele>1771.37</ele>
        <time>2018-07-14T11:39:31Z</time>
      </trkpt>
      <trkpt lat="45.64544" lon="6.11284">
        <ele>1767.04</ele>
        <time>2018-07-14T11:39:56Z</time>
      </trkpt>
      <trkpt lat="45.64518" lon="6.11274">
        <ele>1761.27</ele>
        <time>2018-07-14T11:40:26Z</time>
      </trkpt>
      <trkpt lat="45.64491" lon="6.1127">
        <ele>1757.91</ele>
        <time>2018-07-14T11:40:52Z</time>
      </trkpt>
      <trkpt lat="45.6447" lon="6.11274">
        <ele>1756.95</ele>
        <time>2018-07-14T11:41:21Z</time>
      </trkpt>
      <trkpt lat="45.64446" lon="6.11275">
        <ele>1753.58</ele>
        <time>2018-07-14T11:41:47Z</time>
      </trkpt>
      <trkpt lat="45.64412" lon="6.11278">
        <ele>1747.33</ele>
        <time>2018-07-14T11:42:24Z</time>
      </trkpt>
      <trkpt lat="45.6438" lon="6.11286">
        <ele>1739.64</ele>
        <time>2018-07-14T11:43:04Z</time>
      </trkpt>
      <trkpt lat="45.64355" lon="6.1128">
        <ele>1732.91</ele>
        <time>2018-07-14T11:43:39Z</time>
      </trkpt>
      <trkpt lat="45.64335" lon="6.11278">
        <ele>1726.18</ele>
        <time>2018-07-14T11:44:09Z</time>
      </trkpt>
      <trkpt lat="45.64313" lon="6.11287">
        <ele>1720.42</ele>
        <time>2018-07-14T11:44:45Z</time>
      </trkpt>
      <trkpt lat="45.6428" lon="6.11297">
        <ele>1714.17</ele>
        <time>2018-07-14T11:45:18Z</time>
      </trkpt>
      <trkpt lat="45.64252" lon="6.1129">
        <ele>1707.44</ele>
        <time>2018-07-14T11:45:50Z</time>
      </trkpt>
      <trkpt lat="45.6421" lon="6.11291">
        <ele>1704.07</ele>
        <time>2018-07-14T11:46:24Z</time>
      </trkpt>
      <trkpt lat="45.64188" lon="6.11303">
        <ele>1703.59</ele>
        <time>2018-07-14T11:46:44Z</time>
      </trkpt>
      <trkpt lat="45.64153" lon="6.11323">
        <ele>1705.52</ele>
        <time>2018-07-14T11:47:17Z</time>
      </trkpt>
      <trkpt lat="45.64127" lon="6.11332">
        <ele>1706.48</ele>
        <time>2018-07-14T11:47:41Z</time>
      </trkpt>
      <trkpt lat="45.64093" lon="6.11337">
        <ele>1708.88</ele>
        <time>2018-07-14T11:48:15Z</time>
      </trkpt>
      <trkpt lat="45.64064" lon="6.11358">
        <ele>1712.25</ele>
        <time>2018-07-14T11:50:04Z</time>
      </trkpt>
      <trkpt lat="45.64032" lon="6.1137">
        <ele>1712.25</ele>
        <time>2018-07-14T11:50:35Z</time>
      </trkpt>
      <trkpt lat="45.64004" lon="6.11384">
        <ele>1708.4</ele>
        <time>2018-07-14T11:51:04Z</time>
      </trkpt>
      <trkpt lat="45.63963" lon="6.11409">
        <ele>1707.44</ele>
        <time>2018-07-14T11:51:42Z</time>
      </trkpt>
      <trkpt lat="45.63923" lon="6.11418">
        <ele>1713.21</ele>
        <time>2018-07-14T11:52:20Z</time>
      </trkpt>
      <trkpt lat="45.63886" lon="6.11428">
        <ele>1712.25</ele>
        <time>2018-07-14T11:52:52Z</time>
      </trkpt>
      <trkpt lat="45.63865" lon="6.11441">
        <ele>1708.4</ele>
        <time>2018-07-14T11:53:17Z</time>
      </trkpt>
      <trkpt lat="45.63879" lon="6.11478">
        <ele>1703.59</ele>
        <time>2018-07-14T11:53:49Z</time>
      </trkpt>
      <trkpt lat="45.63893" lon="6.11509">
        <ele>1698.31</ele>
        <time>2018-07-14T11:54:15Z</time>
      </trkpt>
      <trkpt lat="45.63896" lon="6.11546">
        <ele>1692.06</ele>
        <time>2018-07-14T11:54:43Z</time>
      </trkpt>
      <trkpt lat="45.63898" lon="6.11597">
        <ele>1686.77</ele>
        <time>2018-07-14T11:55:17Z</time>
      </trkpt>
      <trkpt lat="45.63893" lon="6.11658">
        <ele>1683.41</ele>
        <time>2018-07-14T11:55:55Z</time>
      </trkpt>
      <trkpt lat="45.63872" lon="6.11642">
        <ele>1670.91</ele>
        <time>2018-07-14T11:56:40Z</time>
      </trkpt>
      <trkpt lat="45.63851" lon="6.11644">
        <ele>1657.93</ele>
        <time>2018-07-14T11:57:20Z</time>
      </trkpt>
      <trkpt lat="45.63827" lon="6.11629">
        <ele>1645.43</ele>
        <time>2018-07-14T11:58:04Z</time>
      </trkpt>
      <trkpt lat="45.63805" lon="6.1162">
        <ele>1632.46</ele>
        <time>2018-07-14T11:58:59Z</time>
      </trkpt>
      <trkpt lat="45.63797" lon="6.11589">
        <ele>1626.21</ele>
        <time>2018-07-14T11:59:29Z</time>
      </trkpt>
      <trkpt lat="45.63777" lon="6.11585">
        <ele>1618.04</ele>
        <time>2018-07-14T12:00:09Z</time>
      </trkpt>
      <trkpt lat="45.63767" lon="6.11617">
        <ele>1612.27</ele>
        <time>2018-07-14T12:00:42Z</time>
      </trkpt>
      <trkpt lat="45.63757" lon="6.11647">
        <ele>1605.06</ele>
        <time>2018-07-14T12:01:17Z</time>
      </trkpt>
      <trkpt lat="45.6374" lon="6.11658">
        <ele>1596.41</ele>
        <time>2018-07-14T12:01:50Z</time>
      </trkpt>
      <trkpt lat="45.63729" lon="6.11636">
        <ele>1590.64</ele>
        <time>2018-07-14T12:03:02Z</time>
      </trkpt>
      <trkpt lat="45.63711" lon="6.11607">
        <ele>1584.39</ele>
        <time>2018-07-14T12:03:34Z</time>
      </trkpt>
      <trkpt lat="45.63696" lon="6.11615">
        <ele>1579.1</ele>
        <time>2018-07-14T12:04:06Z</time>
      </trkpt>
      <trkpt lat="45.63683" lon="6.11669">
        <ele>1570.93</ele>
        <time>2018-07-14T12:04:47Z</time>
      </trkpt>
      <trkpt lat="45.63667" lon="6.11699">
        <ele>1565.64</ele>
        <time>2018-07-14T12:05:16Z</time>
      </trkpt>
      <trkpt lat="45.63639" lon="6.11723">
        <ele>1556.99</ele>
        <time>2018-07-14T12:05:57Z</time>
      </trkpt>
      <trkpt lat="45.63614" lon="6.11718">
        <ele>1550.74</ele>
        <time>2018-07-14T12:06:27Z</time>
      </trkpt>
      <trkpt lat="45.63588" lon="6.11732">
        <ele>1544.5</ele>
        <time>2018-07-14T12:07:11Z</time>
      </trkpt>
      <trkpt lat="45.63583" lon="6.11744">
        <ele>1545.46</ele>
        <time>2018-07-14T12:09:21Z</time>
      </trkpt>
      <trkpt lat="45.63575" lon="6.11726">
        <ele>1537.77</ele>
        <time>2018-07-14T12:10:17Z</time>
      </trkpt>
      <trkpt lat="45.63581" lon="6.11695">
        <ele>1532.48</ele>
        <time>2018-07-14T12:10:46Z</time>
      </trkpt>
      <trkpt lat="45.63576" lon="6.11661">
        <ele>1527.67</ele>
        <time>2018-07-14T12:11:13Z</time>
      </trkpt>
      <trkpt lat="45.63556" lon="6.11638">
        <ele>1525.27</ele>
        <time>2018-07-14T12:11:51Z</time>
      </trkpt>
      <trkpt lat="45.63533" lon="6.11617">
        <ele>1519.02</ele>
        <time>2018-07-14T12:12:26Z</time>
      </trkpt>
      <trkpt lat="45.63535" lon="6.1166">
        <ele>1512.29</ele>
        <time>2018-07-14T12:13:08Z</time>
      </trkpt>
      <trkpt lat="45.63511" lon="6.1165">
        <ele>1502.68</ele>
        <time>2018-07-14T12:13:50Z</time>
      </trkpt>
      <trkpt lat="45.63487" lon="6.11652">
        <ele>1496.91</ele>
        <time>2018-07-14T12:14:20Z</time>
      </trkpt>
      <trkpt lat="45.63465" lon="6.11654">
        <ele>1491.14</ele>
        <time>2018-07-14T12:14:55Z</time>
      </trkpt>
      <trkpt lat="45.6344" lon="6.11653">
        <ele>1484.89</ele>
        <time>2018-07-14T12:15:36Z</time>
      </trkpt>
      <trkpt lat="45.63417" lon="6.11662">
        <ele>1480.09</ele>
        <time>2018-07-14T12:16:07Z</time>
      </trkpt>
      <trkpt lat="45.63385" lon="6.11673">
        <ele>1472.88</ele>
        <time>2018-07-14T12:16:48Z</time>
      </trkpt>
      <trkpt lat="45.63363" lon="6.1168">
        <ele>1466.63</ele>
        <time>2018-07-14T12:17:26Z</time>
      </trkpt>
      <trkpt lat="45.63341" lon="6.11692">
        <ele>1461.34</ele>
        <time>2018-07-14T12:18:01Z</time>
      </trkpt>
      <trkpt lat="45.63306" lon="6.11712">
        <ele>1456.53</ele>
        <time>2018-07-14T12:18:35Z</time>
      </trkpt>
      <trkpt lat="45.63283" lon="6.11721">
        <ele>1453.17</ele>
        <time>2018-07-14T12:19:01Z</time>
      </trkpt>
      <trkpt lat="45.63257" lon="6.11729">
        <ele>1450.29</ele>
        <time>2018-07-14T12:19:28Z</time>
      </trkpt>
      <trkpt lat="45.63238" lon="6.11748">
        <ele>1445.96</ele>
        <time>2018-07-14T12:19:55Z</time>
      </trkpt>
      <trkpt lat="45.63216" lon="6.11758">
        <ele>1443.56</ele>
        <time>2018-07-14T12:20:28Z</time>
      </trkpt>
      <trkpt lat="45.63193" lon="6.11765">
        <ele>1441.63</ele>
        <time>2018-07-14T12:21:09Z</time>
      </trkpt>
      <trkpt lat="45.63157" lon="6.1178">
        <ele>1442.6</ele>
        <time>2018-07-14T12:21:40Z</time>
      </trkpt>
      <trkpt lat="45.63126" lon="6.11784">
        <ele>1445</ele>
        <time>2018-07-14T12:22:08Z</time>
      </trkpt>
      <trkpt lat="45.63093" lon="6.11774">
        <ele>1446.44</ele>
        <time>2018-07-14T12:22:42Z</time>
      </trkpt>
      <trkpt lat="45.63064" lon="6.11764">
        <ele>1445.96</ele>
        <time>2018-07-14T12:23:08Z</time>
      </trkpt>
      <trkpt lat="45.63027" lon="6.11736">
        <ele>1446.44</ele>
        <time>2018-07-14T12:23:48Z</time>
      </trkpt>
      <trkpt lat="45.63009" lon="6.11698">
        <ele>1446.92</ele>
        <time>2018-07-14T12:24:19Z</time>
      </trkpt>
      <trkpt lat="45.62994" lon="6.11672">
        <ele>1446.44</ele>
        <time>2018-07-14T12:24:40Z</time>
      </trkpt>
      <trkpt lat="45.62972" lon="6.1166">
        <ele>1446.44</ele>
        <time>2018-07-14T12:25:28Z</time>
      </trkpt>
      <trkpt lat="45.62945" lon="6.11649">
        <ele>1446.44</ele>
        <time>2018-07-14T12:25:56Z</time>
      </trkpt>
      <trkpt lat="45.62918" lon="6.11618">
        <ele>1445</ele>
        <time>2018-07-14T12:26:28Z</time>
      </trkpt>
      <trkpt lat="45.62899" lon="6.1159">
        <ele>1441.15</ele>
        <time>2018-07-14T12:27:03Z</time>
      </trkpt>
      <trkpt lat="45.6288" lon="6.11562">
        <ele>1442.6</ele>
        <time>2018-07-14T12:27:46Z</time>
      </trkpt>
      <trkpt lat="45.62856" lon="6.1155">
        <ele>1443.56</ele>
        <time>2018-07-14T12:28:16Z</time>
      </trkpt>
      <trkpt lat="45.62831" lon="6.11554">
        <ele>1439.71</ele>
        <time>2018-07-14T12:29:02Z</time>
      </trkpt>
      <trkpt lat="45.62806" lon="6.11555">
        <ele>1437.79</ele>
        <time>2018-07-14T12:29:29Z</time>
      </trkpt>
      <trkpt lat="45.62782" lon="6.11537">
        <ele>1436.35</ele>
        <time>2018-07-14T12:29:57Z</time>
      </trkpt>
      <trkpt lat="45.62761" lon="6.1151">
        <ele>1434.42</ele>
        <time>2018-07-14T12:30:25Z</time>
      </trkpt>
      <trkpt lat="45.62747" lon="6.11481">
        <ele>1435.39</ele>
        <time>2018-07-14T12:30:49Z</time>
      </trkpt>
      <trkpt lat="45.62721" lon="6.11464">
        <ele>1432.02</ele>
        <time>2018-07-14T12:31:33Z</time>
      </trkpt>
      <trkpt lat="45.62698" lon="6.11432">
        <ele>1430.58</ele>
        <time>2018-07-14T12:32:04Z</time>
      </trkpt>
      <trkpt lat="45.62676" lon="6.11422">
        <ele>1430.1</ele>
        <time>2018-07-14T12:32:30Z</time>
      </trkpt>
      <trkpt lat="45.62654" lon="6.11433">
        <ele>1428.66</ele>
        <time>2018-07-14T12:33:04Z</time>
      </trkpt>
      <trkpt lat="45.62633" lon="6.11418">
        <ele>1427.7</ele>
        <time>2018-07-14T12:33:25Z</time>
      </trkpt>
      <trkpt lat="45.62603" lon="6.11415">
        <ele>1428.18</ele>
        <time>2018-07-14T12:33:53Z</time>
      </trkpt>
      <trkpt lat="45.62577" lon="6.11381">
        <ele>1429.62</ele>
        <time>2018-07-14T12:34:29Z</time>
      </trkpt>
      <trkpt lat="45.62557" lon="6.11347">
        <ele>1430.58</ele>
        <time>2018-07-14T12:34:55Z</time>
      </trkpt>
      <trkpt lat="45.62542" lon="6.1131">
        <ele>1431.06</ele>
        <time>2018-07-14T12:35:25Z</time>
      </trkpt>
      <trkpt lat="45.62543" lon="6.1126">
        <ele>1432.02</ele>
        <time>2018-07-14T12:35:55Z</time>
      </trkpt>
      <trkpt lat="45.62548" lon="6.11223">
        <ele>1433.46</ele>
        <time>2018-07-14T12:36:22Z</time>
      </trkpt>
      <trkpt lat="45.62537" lon="6.1119">
        <ele>1438.27</ele>
        <time>2018-07-14T12:37:04Z</time>
      </trkpt>
      <trkpt lat="45.62523" lon="6.1115">
        <ele>1441.63</ele>
        <time>2018-07-14T12:37:44Z</time>
      </trkpt>
      <trkpt lat="45.62504" lon="6.11123">
        <ele>1445.48</ele>
        <time>2018-07-14T12:38:24Z</time>
      </trkpt>
      <trkpt lat="45.62477" lon="6.111">
        <ele>1447.4</ele>
        <time>2018-07-14T12:39:05Z</time>
      </trkpt>
      <trkpt lat="45.62445" lon="6.11084">
        <ele>1450.29</ele>
        <time>2018-07-14T12:39:47Z</time>
      </trkpt>
      <trkpt lat="45.62426" lon="6.11058">
        <ele>1452.21</ele>
        <time>2018-07-14T12:40:18Z</time>
      </trkpt>
      <trkpt lat="45.62418" lon="6.11019">
        <ele>1454.61</ele>
        <time>2018-07-14T12:40:48Z</time>
      </trkpt>
      <trkpt lat="45.62407" lon="6.10988">
        <ele>1458.46</ele>
        <time>2018-07-14T12:41:24Z</time>
      </trkpt>
      <trkpt lat="45.624" lon="6.10949">
        <ele>1458.94</ele>
        <time>2018-07-14T12:41:51Z</time>
      </trkpt>
      <trkpt lat="45.62394" lon="6.10939">
        <ele>1456.53</ele>
        <time>2018-07-14T12:45:12Z</time>
      </trkpt>
      <trkpt lat="45.62376" lon="6.10903">
        <ele>1457.98</ele>
        <time>2018-07-14T12:46:15Z</time>
      </trkpt>
      <trkpt lat="45.62366" lon="6.10867">
        <ele>1459.42</ele>
        <time>2018-07-14T12:46:45Z</time>
      </trkpt>
      <trkpt lat="45.62353" lon="6.10835">
        <ele>1460.86</ele>
        <time>2018-07-14T12:47:12Z</time>
      </trkpt>
      <trkpt lat="45.62336" lon="6.10809">
        <ele>1464.71</ele>
        <time>2018-07-14T12:47:38Z</time>
      </trkpt>
      <trkpt lat="45.62319" lon="6.10776">
        <ele>1468.07</ele>
        <time>2018-07-14T12:48:12Z</time>
      </trkpt>
      <trkpt lat="45.62297" lon="6.10758">
        <ele>1469.03</ele>
        <time>2018-07-14T12:49:06Z</time>
      </trkpt>
      <trkpt lat="45.62269" lon="6.10738">
        <ele>1469.51</ele>
        <time>2018-07-14T12:49:46Z</time>
      </trkpt>
      <trkpt lat="45.62243" lon="6.10709">
        <ele>1471.44</ele>
        <time>2018-07-14T12:50:26Z</time>
      </trkpt>
      <trkpt lat="45.62227" lon="6.1068">
        <ele>1471.44</ele>
        <time>2018-07-14T12:50:54Z</time>
      </trkpt>
      <trkpt lat="45.62223" lon="6.10638">
        <ele>1471.44</ele>
        <time>2018-07-14T12:51:23Z</time>
      </trkpt>
      <trkpt lat="45.62217" lon="6.10604">
        <ele>1471.92</ele>
        <time>2018-07-14T12:52:09Z</time>
      </trkpt>
      <trkpt lat="45.62208" lon="6.10569">
        <ele>1472.4</ele>
        <time>2018-07-14T12:52:39Z</time>
      </trkpt>
      <trkpt lat="45.62213" lon="6.10525">
        <ele>1470.95</ele>
        <time>2018-07-14T12:53:16Z</time>
      </trkpt>
      <trkpt lat="45.62205" lon="6.10492">
        <ele>1469.99</ele>
        <time>2018-07-14T12:53:54Z</time>
      </trkpt>
      <trkpt lat="45.62186" lon="6.10457">
        <ele>1468.55</ele>
        <time>2018-07-14T12:54:31Z</time>
      </trkpt>
      <trkpt lat="45.62164" lon="6.10428">
        <ele>1467.59</ele>
        <time>2018-07-14T12:55:12Z</time>
      </trkpt>
      <trkpt lat="45.62145" lon="6.10406">
        <ele>1467.11</ele>
        <time>2018-07-14T12:55:42Z</time>
      </trkpt>
      <trkpt lat="45.62124" lon="6.10393">
        <ele>1465.19</ele>
        <time>2018-07-14T12:56:12Z</time>
      </trkpt>
      <trkpt lat="45.62096" lon="6.10373">
        <ele>1459.42</ele>
        <time>2018-07-14T12:57:16Z</time>
      </trkpt>
      <trkpt lat="45.62082" lon="6.10343">
        <ele>1454.61</ele>
        <time>2018-07-14T12:57:47Z</time>
      </trkpt>
      <trkpt lat="45.6207" lon="6.10316">
        <ele>1448.84</ele>
        <time>2018-07-14T12:58:15Z</time>
      </trkpt>
      <trkpt lat="45.62058" lon="6.10287">
        <ele>1443.08</ele>
        <time>2018-07-14T12:58:46Z</time>
      </trkpt>
      <trkpt lat="45.62045" lon="6.10258">
        <ele>1439.71</ele>
        <time>2018-07-14T12:59:16Z</time>
      </trkpt>
      <trkpt lat="45.62028" lon="6.10223">
        <ele>1435.87</ele>
        <time>2018-07-14T12:59:49Z</time>
      </trkpt>
      <trkpt lat="45.62016" lon="6.10187">
        <ele>1431.54</ele>
        <time>2018-07-14T13:00:19Z</time>
      </trkpt>
      <trkpt lat="45.62007" lon="6.10157">
        <ele>1425.77</ele>
        <time>2018-07-14T13:00:49Z</time>
      </trkpt>
      <trkpt lat="45.61996" lon="6.10127">
        <ele>1421.93</ele>
        <time>2018-07-14T13:01:19Z</time>
      </trkpt>
      <trkpt lat="45.61985" lon="6.10097">
        <ele>1416.64</ele>
        <time>2018-07-14T13:01:50Z</time>
      </trkpt>
      <trkpt lat="45.6198" lon="6.1006">
        <ele>1413.76</ele>
        <time>2018-07-14T13:02:19Z</time>
      </trkpt>
      <trkpt lat="45.61973" lon="6.10028">
        <ele>1411.83</ele>
        <time>2018-07-14T13:02:47Z</time>
      </trkpt>
      <trkpt lat="45.61966" lon="6.09996">
        <ele>1407.51</ele>
        <time>2018-07-14T13:03:17Z</time>
      </trkpt>
      <trkpt lat="45.61955" lon="6.09969">
        <ele>1396.93</ele>
        <time>2018-07-14T13:04:09Z</time>
      </trkpt>
      <trkpt lat="45.61943" lon="6.09938">
        <ele>1384.44</ele>
        <time>2018-07-14T13:04:52Z</time>
      </trkpt>
      <trkpt lat="45.61929" lon="6.09906">
        <ele>1374.82</ele>
        <time>2018-07-14T13:05:29Z</time>
      </trkpt>
      <trkpt lat="45.61914" lon="6.09882">
        <ele>1365.69</ele>
        <time>2018-07-14T13:06:04Z</time>
      </trkpt>
      <trkpt lat="45.61901" lon="6.0985">
        <ele>1357.04</ele>
        <time>2018-07-14T13:06:42Z</time>
      </trkpt>
      <trkpt lat="45.61894" lon="6.09811">
        <ele>1356.08</ele>
        <time>2018-07-14T13:07:11Z</time>
      </trkpt>
      <trkpt lat="45.61892" lon="6.09772">
        <ele>1352.23</ele>
        <time>2018-07-14T13:07:39Z</time>
      </trkpt>
      <trkpt lat="45.61891" lon="6.09734">
        <ele>1348.87</ele>
        <time>2018-07-14T13:08:17Z</time>
      </trkpt>
      <trkpt lat="45.6188" lon="6.09697">
        <ele>1344.54</ele>
        <time>2018-07-14T13:09:36Z</time>
      </trkpt>
      <trkpt lat="45.61864" lon="6.0967">
        <ele>1342.62</ele>
        <time>2018-07-14T13:10:04Z</time>
      </trkpt>
      <trkpt lat="45.61849" lon="6.09634">
        <ele>1341.18</ele>
        <time>2018-07-14T13:10:33Z</time>
      </trkpt>
      <trkpt lat="45.61834" lon="6.096">
        <ele>1340.22</ele>
        <time>2018-07-14T13:11:04Z</time>
      </trkpt>
      <trkpt lat="45.61835" lon="6.09561">
        <ele>1337.81</ele>
        <time>2018-07-14T13:11:33Z</time>
      </trkpt>
      <trkpt lat="45.61831" lon="6.09535">
        <ele>1331.08</ele>
        <time>2018-07-14T13:12:14Z</time>
      </trkpt>
      <trkpt lat="45.61808" lon="6.09523">
        <ele>1326.28</ele>
        <time>2018-07-14T13:12:43Z</time>
      </trkpt>
      <trkpt lat="45.61785" lon="6.0952">
        <ele>1320.03</ele>
        <time>2018-07-14T13:13:16Z</time>
      </trkpt>
      <trkpt lat="45.61761" lon="6.09525">
        <ele>1308.49</ele>
        <time>2018-07-14T13:14:13Z</time>
      </trkpt>
      <trkpt lat="45.61737" lon="6.09531">
        <ele>1295.99</ele>
        <time>2018-07-14T13:15:12Z</time>
      </trkpt>
      <trkpt lat="45.61719" lon="6.0953">
        <ele>1290.23</ele>
        <time>2018-07-14T13:15:55Z</time>
      </trkpt>
      <trkpt lat="45.61697" lon="6.09508">
        <ele>1284.46</ele>
        <time>2018-07-14T13:16:39Z</time>
      </trkpt>
      <trkpt lat="45.61669" lon="6.09504">
        <ele>1275.81</ele>
        <time>2018-07-14T13:17:24Z</time>
      </trkpt>
      <trkpt lat="45.61643" lon="6.09492">
        <ele>1266.67</ele>
        <time>2018-07-14T13:18:06Z</time>
      </trkpt>
      <trkpt lat="45.61627" lon="6.0947">
        <ele>1258.5</ele>
        <time>2018-07-14T13:18:47Z</time>
      </trkpt>
      <trkpt lat="45.61615" lon="6.09437">
        <ele>1246.97</ele>
        <time>2018-07-14T13:19:44Z</time>
      </trkpt>
      <trkpt lat="45.61626" lon="6.094">
        <ele>1235.43</ele>
        <time>2018-07-14T13:20:39Z</time>
      </trkpt>
      <trkpt lat="45.61612" lon="6.09394">
        <ele>1225.34</ele>
        <time>2018-07-14T13:21:38Z</time>
      </trkpt>
      <trkpt lat="45.61592" lon="6.09409">
        <ele>1218.61</ele>
        <time>2018-07-14T13:22:18Z</time>
      </trkpt>
      <trkpt lat="45.61568" lon="6.09421">
        <ele>1210.44</ele>
        <time>2018-07-14T13:23:01Z</time>
      </trkpt>
      <trkpt lat="45.61539" lon="6.09422">
        <ele>1197.46</ele>
        <time>2018-07-14T13:23:59Z</time>
      </trkpt>
      <trkpt lat="45.61539" lon="6.09391">
        <ele>1192.17</ele>
        <time>2018-07-14T13:24:31Z</time>
      </trkpt>
      <trkpt lat="45.61542" lon="6.09371">
        <ele>1185.44</ele>
        <time>2018-07-14T13:25:18Z</time>
      </trkpt>
      <trkpt lat="45.61566" lon="6.09352">
        <ele>1176.79</ele>
        <time>2018-07-14T13:26:02Z</time>
      </trkpt>
      <trkpt lat="45.6159" lon="6.09324">
        <ele>1165.26</ele>
        <time>2018-07-14T13:26:59Z</time>
      </trkpt>
      <trkpt lat="45.61612" lon="6.09307">
        <ele>1157.56</ele>
        <time>2018-07-14T13:27:39Z</time>
      </trkpt>
      <trkpt lat="45.61632" lon="6.0929">
        <ele>1148.91</ele>
        <time>2018-07-14T13:28:17Z</time>
      </trkpt>
      <trkpt lat="45.61646" lon="6.09254">
        <ele>1136.42</ele>
        <time>2018-07-14T13:29:12Z</time>
      </trkpt>
      <trkpt lat="45.61663" lon="6.09232">
        <ele>1131.13</ele>
        <time>2018-07-14T13:29:42Z</time>
      </trkpt>
      <trkpt lat="45.61688" lon="6.09216">
        <ele>1129.69</ele>
        <time>2018-07-14T13:30:21Z</time>
      </trkpt>
      <trkpt lat="45.61714" lon="6.09204">
        <ele>1126.8</ele>
        <time>2018-07-14T13:31:07Z</time>
      </trkpt>
      <trkpt lat="45.6174" lon="6.09185">
        <ele>1119.59</ele>
        <time>2018-07-14T13:31:50Z</time>
      </trkpt>
      <trkpt lat="45.61767" lon="6.09154">
        <ele>1110.94</ele>
        <time>2018-07-14T13:32:35Z</time>
      </trkpt>
      <trkpt lat="45.61785" lon="6.09126">
        <ele>1102.29</ele>
        <time>2018-07-14T13:33:12Z</time>
      </trkpt>
      <trkpt lat="45.61802" lon="6.09089">
        <ele>1094.12</ele>
        <time>2018-07-14T13:33:57Z</time>
      </trkpt>
      <trkpt lat="45.61812" lon="6.09062">
        <ele>1085.47</ele>
        <time>2018-07-14T13:34:37Z</time>
      </trkpt>
      <trkpt lat="45.6181" lon="6.09017">
        <ele>1080.18</ele>
        <time>2018-07-14T13:35:16Z</time>
      </trkpt>
      <trkpt lat="45.61805" lon="6.0898">
        <ele>1075.85</ele>
        <time>2018-07-14T13:35:49Z</time>
      </trkpt>
      <trkpt lat="45.61781" lon="6.08963">
        <ele>1066.72</ele>
        <time>2018-07-14T13:36:41Z</time>
      </trkpt>
      <trkpt lat="45.61774" lon="6.08941">
        <ele>1059.51</ele>
        <time>2018-07-14T13:37:23Z</time>
      </trkpt>
      <trkpt lat="45.6176" lon="6.08914">
        <ele>1049.42</ele>
        <time>2018-07-14T13:38:13Z</time>
      </trkpt>
      <trkpt lat="45.61732" lon="6.08905">
        <ele>1038.36</ele>
        <time>2018-07-14T13:39:10Z</time>
      </trkpt>
      <trkpt lat="45.61726" lon="6.08881">
        <ele>1029.71</ele>
        <time>2018-07-14T13:40:03Z</time>
      </trkpt>
      <trkpt lat="45.61723" lon="6.08855">
        <ele>1021.54</ele>
        <time>2018-07-14T13:40:58Z</time>
      </trkpt>
      <trkpt lat="45.61719" lon="6.08815">
        <ele>1012.89</ele>
        <time>2018-07-14T13:41:44Z</time>
      </trkpt>
      <trkpt lat="45.61718" lon="6.08773">
        <ele>1003.75</ele>
        <time>2018-07-14T13:42:43Z</time>
      </trkpt>
      <trkpt lat="45.61728" lon="6.08735">
        <ele>995.1</ele>
        <time>2018-07-14T13:43:28Z</time>
      </trkpt>
      <trkpt lat="45.61724" lon="6.08701">
        <ele>988.37</ele>
        <time>2018-07-14T13:44:10Z</time>
      </trkpt>
      <trkpt lat="45.61728" lon="6.08665">
        <ele>980.68</ele>
        <time>2018-07-14T13:44:49Z</time>
      </trkpt>
      <trkpt lat="45.61723" lon="6.08624">
        <ele>970.59</ele>
        <time>2018-07-14T13:45:33Z</time>
      </trkpt>
      <trkpt lat="45.61714" lon="6.08572">
        <ele>962.9</ele>
        <time>2018-07-14T13:46:14Z</time>
      </trkpt>
      <trkpt lat="45.61708" lon="6.08541">
        <ele>958.09</ele>
        <time>2018-07-14T13:46:41Z</time>
      </trkpt>
      <trkpt lat="45.61701" lon="6.08556">
        <ele>953.77</ele>
        <time>2018-07-14T13:47:19Z</time>
      </trkpt>
      <trkpt lat="45.61698" lon="6.08598">
        <ele>950.4</ele>
        <time>2018-07-14T13:47:50Z</time>
      </trkpt>
      <trkpt lat="45.61687" lon="6.08628">
        <ele>948.48</ele>
        <time>2018-07-14T13:48:13Z</time>
      </trkpt>
      <trkpt lat="45.61671" lon="6.08654">
        <ele>947.04</ele>
        <time>2018-07-14T13:48:35Z</time>
      </trkpt>
      <trkpt lat="45.61654" lon="6.08688">
        <ele>944.15</ele>
        <time>2018-07-14T13:49:07Z</time>
      </trkpt>
      <trkpt lat="45.61642" lon="6.08713">
        <ele>944.15</ele>
        <time>2018-07-14T13:49:59Z</time>
      </trkpt>
      <trkpt lat="45.61642" lon="6.08712">
        <ele>942.71</ele>
        <time>2018-07-14T13:50:37Z</time>
      </trkpt>
    </trkseg>
  </trk>
</gpx>